sensor_id;sensor_type;location;lat;lon;timestamp;P1;durP1;ratioP1;P2;durP2;ratioP2
12218;SDS011;6172;42.646;23.344;2024-02-23T00:36:29;14.50;;;8.60;;
12218;SDS011;6172;42.646;23.344;2024-02-23T00:39:01;14.97;;;8.60;;
12218;SDS011;6172;42.646;23.344;2024-02-23T00:41:35;13.87;;;8.90;;
12218;SDS011;6172;42.646;23.344;2024-02-23T00:44:11;12.40;;;8.20;;
12218;SDS011;6172;42.646;23.344;2024-02-23T00:46:41;13.70;;;8.60;;
12218;SDS011;6172;42.646;23.344;2024-02-23T00:49:12;12.70;;;8.70;;
12218;SDS011;6172;42.646;23.344;2024-02-23T00:54:30;15.60;;;8.23;;
12218;SDS011;6172;42.646;23.344;2024-02-23T00:57:19;14.73;;;8.60;;
12218;SDS011;6172;42.646;23.344;2024-02-23T00:59:52;14.10;;;8.70;;
12218;SDS011;6172;42.646;23.344;2024-02-23T01:02:35;10.50;;;7.47;;
12218;SDS011;6172;42.646;23.344;2024-02-23T01:05:27;10.57;;;7.20;;
12218;SDS011;6172;42.646;23.344;2024-02-23T01:07:58;13.60;;;8.77;;
12218;SDS011;6172;42.646;23.344;2024-02-23T01:10:32;8.53;;;6.57;;
12218;SDS011;6172;42.646;23.344;2024-02-23T01:13:08;14.80;;;7.40;;
12218;SDS011;6172;42.646;23.344;2024-02-23T01:15:39;13.03;;;7.60;;
12218;SDS011;6172;42.646;23.344;2024-02-23T01:18:07;10.27;;;6.67;;
12218;SDS011;6172;42.646;23.344;2024-02-23T01:20:35;9.13;;;6.03;;
12218;SDS011;6172;42.646;23.344;2024-02-23T01:23:09;6.97;;;5.37;;
12218;SDS011;6172;42.646;23.344;2024-02-23T01:25:40;8.97;;;5.67;;
12218;SDS011;6172;42.646;23.344;2024-02-23T01:30:52;12.50;;;6.80;;
12218;SDS011;6172;42.646;23.344;2024-02-23T01:33:52;8.70;;;5.17;;
12218;SDS011;6172;42.646;23.344;2024-02-23T01:36:25;11.00;;;5.67;;
12218;SDS011;6172;42.646;23.344;2024-02-23T01:39:04;11.23;;;6.57;;
12218;SDS011;6172;42.646;23.344;2024-02-23T01:41:32;10.13;;;6.87;;
12218;SDS011;6172;42.646;23.344;2024-02-23T01:44:02;10.70;;;6.37;;
12218;SDS011;6172;42.646;23.344;2024-02-23T01:46:31;11.90;;;7.33;;
12218;SDS011;6172;42.646;23.344;2024-02-23T01:49:13;9.57;;;6.23;;
12218;SDS011;6172;42.646;23.344;2024-02-23T01:51:42;9.53;;;6.63;;
12218;SDS011;6172;42.646;23.344;2024-02-23T01:54:18;9.83;;;6.70;;
12218;SDS011;6172;42.646;23.344;2024-02-23T01:57:02;12.30;;;7.00;;
12218;SDS011;6172;42.646;23.344;2024-02-23T01:59:32;9.83;;;6.03;;
12218;SDS011;6172;42.646;23.344;2024-02-23T02:02:02;9.77;;;7.13;;
12218;SDS011;6172;42.646;23.344;2024-02-23T02:04:40;11.03;;;6.43;;
12218;SDS011;6172;42.646;23.344;2024-02-23T02:07:12;12.87;;;6.73;;
12218;SDS011;6172;42.646;23.344;2024-02-23T02:09:55;10.70;;;6.67;;
12218;SDS011;6172;42.646;23.344;2024-02-23T02:12:28;9.87;;;6.27;;
12218;SDS011;6172;42.646;23.344;2024-02-23T02:14:59;9.77;;;6.23;;
12218;SDS011;6172;42.646;23.344;2024-02-23T02:17:26;9.60;;;6.47;;
12218;SDS011;6172;42.646;23.344;2024-02-23T02:19:54;9.30;;;6.60;;
12218;SDS011;6172;42.646;23.344;2024-02-23T02:22:21;9.50;;;6.60;;
12218;SDS011;6172;42.646;23.344;2024-02-23T02:24:52;8.40;;;5.73;;
12218;SDS011;6172;42.646;23.344;2024-02-23T02:27:20;8.17;;;5.70;;
12218;SDS011;6172;42.646;23.344;2024-02-23T02:29:52;10.53;;;6.27;;
12218;SDS011;6172;42.646;23.344;2024-02-23T02:32:21;11.03;;;6.10;;
12218;SDS011;6172;42.646;23.344;2024-02-23T02:34:49;10.40;;;6.00;;
12218;SDS011;6172;42.646;23.344;2024-02-23T02:37:30;11.70;;;6.10;;
12218;SDS011;6172;42.646;23.344;2024-02-23T02:40:21;6.57;;;5.20;;
12218;SDS011;6172;42.646;23.344;2024-02-23T02:42:52;9.50;;;5.93;;
12218;SDS011;6172;42.646;23.344;2024-02-23T02:45:20;8.77;;;5.87;;
12218;SDS011;6172;42.646;23.344;2024-02-23T02:47:48;8.33;;;6.40;;
12218;SDS011;6172;42.646;23.344;2024-02-23T02:50:16;9.23;;;6.57;;
12218;SDS011;6172;42.646;23.344;2024-02-23T02:52:45;9.50;;;6.33;;
12218;SDS011;6172;42.646;23.344;2024-02-23T02:55:20;9.77;;;6.67;;
12218;SDS011;6172;42.646;23.344;2024-02-23T02:58:03;11.87;;;6.63;;
12218;SDS011;6172;42.646;23.344;2024-02-23T03:00:35;9.60;;;6.53;;
12218;SDS011;6172;42.646;23.344;2024-02-23T03:03:08;10.43;;;6.40;;
12218;SDS011;6172;42.646;23.344;2024-02-23T03:05:37;9.07;;;6.30;;
12218;SDS011;6172;42.646;23.344;2024-02-23T03:08:07;9.60;;;5.93;;
12218;SDS011;6172;42.646;23.344;2024-02-23T03:31:35;8.80;;;5.80;;
12218;SDS011;6172;42.646;23.344;2024-02-23T03:34:03;9.87;;;6.30;;
12218;SDS011;6172;42.646;23.344;2024-02-23T03:36:30;11.70;;;6.47;;
12218;SDS011;6172;42.646;23.344;2024-02-23T03:38:57;11.10;;;6.67;;
12218;SDS011;6172;42.646;23.344;2024-02-23T03:41:24;11.97;;;6.00;;
12218;SDS011;6172;42.646;23.344;2024-02-23T03:43:52;10.33;;;6.83;;
12218;SDS011;6172;42.646;23.344;2024-02-23T03:46:20;12.97;;;7.17;;
12218;SDS011;6172;42.646;23.344;2024-02-23T03:48:53;8.83;;;6.73;;
12218;SDS011;6172;42.646;23.344;2024-02-23T03:51:21;10.37;;;7.10;;
12218;SDS011;6172;42.646;23.344;2024-02-23T03:53:49;10.30;;;6.93;;
12218;SDS011;6172;42.646;23.344;2024-02-23T03:56:17;10.93;;;6.97;;
12218;SDS011;6172;42.646;23.344;2024-02-23T03:58:44;8.60;;;6.30;;
12218;SDS011;6172;42.646;23.344;2024-02-23T04:01:16;9.43;;;6.40;;
12218;SDS011;6172;42.646;23.344;2024-02-23T04:03:46;9.23;;;6.70;;
12218;SDS011;6172;42.646;23.344;2024-02-23T04:06:19;8.87;;;6.17;;
12218;SDS011;6172;42.646;23.344;2024-02-23T04:08:47;8.37;;;5.83;;
12218;SDS011;6172;42.646;23.344;2024-02-23T04:11:17;12.70;;;6.60;;
12218;SDS011;6172;42.646;23.344;2024-02-23T04:13:49;8.57;;;5.50;;
12218;SDS011;6172;42.646;23.344;2024-02-23T04:16:17;9.07;;;5.97;;
12218;SDS011;6172;42.646;23.344;2024-02-23T04:19:05;9.40;;;6.17;;
12218;SDS011;6172;42.646;23.344;2024-02-23T04:28:00;8.87;;;6.03;;
12218;SDS011;6172;42.646;23.344;2024-02-23T04:30:29;10.10;;;5.93;;
12218;SDS011;6172;42.646;23.344;2024-02-23T04:33:01;11.27;;;6.53;;
12218;SDS011;6172;42.646;23.344;2024-02-23T04:35:30;11.23;;;6.70;;
12218;SDS011;6172;42.646;23.344;2024-02-23T04:38:00;11.93;;;6.90;;
12218;SDS011;6172;42.646;23.344;2024-02-23T04:40:31;10.07;;;7.27;;
12218;SDS011;6172;42.646;23.344;2024-02-23T04:43:16;9.43;;;6.63;;
12218;SDS011;6172;42.646;23.344;2024-02-23T04:46:02;13.23;;;8.00;;
12218;SDS011;6172;42.646;23.344;2024-02-23T04:48:52;13.73;;;7.97;;
12218;SDS011;6172;42.646;23.344;2024-02-23T04:51:45;14.23;;;7.77;;
12218;SDS011;6172;42.646;23.344;2024-02-23T04:58:38;12.33;;;7.23;;
12218;SDS011;6172;42.646;23.344;2024-02-23T05:01:14;11.60;;;7.23;;
12218;SDS011;6172;42.646;23.344;2024-02-23T05:03:44;11.57;;;7.00;;
12218;SDS011;6172;42.646;23.344;2024-02-23T05:06:15;14.07;;;6.97;;
12218;SDS011;6172;42.646;23.344;2024-02-23T05:08:46;12.53;;;6.97;;
12218;SDS011;6172;42.646;23.344;2024-02-23T05:11:14;11.33;;;7.33;;
12218;SDS011;6172;42.646;23.344;2024-02-23T05:14:06;12.43;;;7.60;;
12218;SDS011;6172;42.646;23.344;2024-02-23T05:16:34;11.50;;;7.10;;
12218;SDS011;6172;42.646;23.344;2024-02-23T05:19:02;11.40;;;7.10;;
12218;SDS011;6172;42.646;23.344;2024-02-23T05:21:35;10.83;;;7.10;;
12218;SDS011;6172;42.646;23.344;2024-02-23T05:24:04;9.83;;;7.20;;
12218;SDS011;6172;42.646;23.344;2024-02-23T05:26:33;9.03;;;6.73;;
12218;SDS011;6172;42.646;23.344;2024-02-23T05:29:16;11.37;;;7.10;;
12218;SDS011;6172;42.646;23.344;2024-02-23T05:31:49;12.20;;;7.40;;
12218;SDS011;6172;42.646;23.344;2024-02-23T05:34:21;11.57;;;7.73;;
12218;SDS011;6172;42.646;23.344;2024-02-23T05:36:52;13.87;;;7.70;;
12218;SDS011;6172;42.646;23.344;2024-02-23T05:39:21;11.37;;;8.13;;
12218;SDS011;6172;42.646;23.344;2024-02-23T05:41:49;15.63;;;7.50;;
12218;SDS011;6172;42.646;23.344;2024-02-23T05:44:18;14.67;;;7.43;;
12218;SDS011;6172;42.646;23.344;2024-02-23T05:46:47;11.10;;;7.97;;
12218;SDS011;6172;42.646;23.344;2024-02-23T05:49:14;13.60;;;8.10;;
12218;SDS011;6172;42.646;23.344;2024-02-23T05:51:42;13.43;;;8.43;;
12218;SDS011;6172;42.646;23.344;2024-02-23T05:54:10;15.93;;;9.50;;
12218;SDS011;6172;42.646;23.344;2024-02-23T05:56:38;15.57;;;8.67;;
12218;SDS011;6172;42.646;23.344;2024-02-23T05:59:06;17.27;;;9.53;;
12218;SDS011;6172;42.646;23.344;2024-02-23T06:01:36;15.30;;;8.97;;
12218;SDS011;6172;42.646;23.344;2024-02-23T06:04:04;13.57;;;8.17;;
12218;SDS011;6172;42.646;23.344;2024-02-23T06:06:33;18.00;;;8.63;;
12218;SDS011;6172;42.646;23.344;2024-02-23T06:09:01;12.33;;;8.30;;
12218;SDS011;6172;42.646;23.344;2024-02-23T06:11:30;13.87;;;8.80;;
12218;SDS011;6172;42.646;23.344;2024-02-23T06:13:59;22.60;;;10.37;;
12218;SDS011;6172;42.646;23.344;2024-02-23T06:16:28;19.20;;;9.20;;
12218;SDS011;6172;42.646;23.344;2024-02-23T06:18:58;17.50;;;9.23;;
12218;SDS011;6172;42.646;23.344;2024-02-23T06:21:26;11.27;;;7.90;;
12218;SDS011;6172;42.646;23.344;2024-02-23T06:23:54;19.30;;;8.83;;
12218;SDS011;6172;42.646;23.344;2024-02-23T06:26:25;19.27;;;8.43;;
12218;SDS011;6172;42.646;23.344;2024-02-23T06:28:54;19.73;;;8.63;;
12218;SDS011;6172;42.646;23.344;2024-02-23T06:31:25;16.40;;;8.53;;
12218;SDS011;6172;42.646;23.344;2024-02-23T06:37:01;13.63;;;7.80;;
12218;SDS011;6172;42.646;23.344;2024-02-23T06:39:29;17.33;;;7.67;;
12218;SDS011;6172;42.646;23.344;2024-02-23T06:41:57;14.27;;;8.23;;
12218;SDS011;6172;42.646;23.344;2024-02-23T06:44:39;11.03;;;6.77;;
12218;SDS011;6172;42.646;23.344;2024-02-23T06:47:22;10.53;;;7.30;;
12218;SDS011;6172;42.646;23.344;2024-02-23T06:49:52;12.47;;;8.00;;
12218;SDS011;6172;42.646;23.344;2024-02-23T06:52:20;13.87;;;8.10;;
12218;SDS011;6172;42.646;23.344;2024-02-23T06:54:48;12.43;;;8.00;;
12218;SDS011;6172;42.646;23.344;2024-02-23T06:57:16;12.30;;;7.80;;
12218;SDS011;6172;42.646;23.344;2024-02-23T06:59:43;9.60;;;7.53;;
12218;SDS011;6172;42.646;23.344;2024-02-23T07:02:10;9.73;;;7.70;;
12218;SDS011;6172;42.646;23.344;2024-02-23T07:04:37;10.23;;;7.50;;
12218;SDS011;6172;42.646;23.344;2024-02-23T07:07:07;9.30;;;7.50;;
12218;SDS011;6172;42.646;23.344;2024-02-23T07:09:36;10.07;;;7.47;;
12218;SDS011;6172;42.646;23.344;2024-02-23T07:12:04;10.47;;;7.80;;
12218;SDS011;6172;42.646;23.344;2024-02-23T07:14:32;12.33;;;7.60;;
12218;SDS011;6172;42.646;23.344;2024-02-23T07:16:59;12.30;;;8.30;;
12218;SDS011;6172;42.646;23.344;2024-02-23T07:19:26;15.43;;;9.17;;
12218;SDS011;6172;42.646;23.344;2024-02-23T07:21:55;10.87;;;8.27;;
12218;SDS011;6172;42.646;23.344;2024-02-23T07:24:43;11.80;;;8.07;;
12218;SDS011;6172;42.646;23.344;2024-02-23T07:27:10;10.70;;;8.53;;
12218;SDS011;6172;42.646;23.344;2024-02-23T07:29:37;12.10;;;7.93;;
12218;SDS011;6172;42.646;23.344;2024-02-23T07:32:05;10.57;;;8.20;;
12218;SDS011;6172;42.646;23.344;2024-02-23T07:34:32;10.73;;;7.67;;
12218;SDS011;6172;42.646;23.344;2024-02-23T07:37:00;14.10;;;8.30;;
12218;SDS011;6172;42.646;23.344;2024-02-23T07:39:27;12.47;;;8.10;;
12218;SDS011;6172;42.646;23.344;2024-02-23T07:42:00;11.63;;;8.20;;
12218;SDS011;6172;42.646;23.344;2024-02-23T07:44:28;16.67;;;8.67;;
12218;SDS011;6172;42.646;23.344;2024-02-23T07:47:09;12.67;;;8.50;;
12218;SDS011;6172;42.646;23.344;2024-02-23T07:49:39;11.13;;;8.23;;
12218;SDS011;6172;42.646;23.344;2024-02-23T07:55:02;13.87;;;8.77;;
12218;SDS011;6172;42.646;23.344;2024-02-23T07:57:36;17.80;;;9.83;;
12218;SDS011;6172;42.646;23.344;2024-02-23T08:00:06;11.83;;;8.30;;
12218;SDS011;6172;42.646;23.344;2024-02-23T08:02:40;11.57;;;8.30;;
12218;SDS011;6172;42.646;23.344;2024-02-23T08:05:10;15.23;;;9.80;;
12218;SDS011;6172;42.646;23.344;2024-02-23T08:07:39;11.63;;;8.47;;
12218;SDS011;6172;42.646;23.344;2024-02-23T08:10:06;14.73;;;8.27;;
12218;SDS011;6172;42.646;23.344;2024-02-23T08:12:39;13.80;;;8.60;;
12218;SDS011;6172;42.646;23.344;2024-02-23T08:15:08;15.03;;;8.30;;
12218;SDS011;6172;42.646;23.344;2024-02-23T08:17:38;13.97;;;7.90;;
12218;SDS011;6172;42.646;23.344;2024-02-23T08:20:06;13.27;;;7.87;;
12218;SDS011;6172;42.646;23.344;2024-02-23T08:22:35;11.83;;;8.10;;
12218;SDS011;6172;42.646;23.344;2024-02-23T08:25:05;10.67;;;7.70;;
12218;SDS011;6172;42.646;23.344;2024-02-23T08:27:34;13.43;;;8.00;;
12218;SDS011;6172;42.646;23.344;2024-02-23T08:30:04;14.93;;;7.67;;
12218;SDS011;6172;42.646;23.344;2024-02-23T08:32:32;14.00;;;8.13;;
12218;SDS011;6172;42.646;23.344;2024-02-23T08:35:01;13.50;;;8.23;;
12218;SDS011;6172;42.646;23.344;2024-02-23T08:37:40;13.97;;;8.30;;
12218;SDS011;6172;42.646;23.344;2024-02-23T08:40:08;16.20;;;8.50;;
12218;SDS011;6172;42.646;23.344;2024-02-23T08:42:37;15.30;;;8.37;;
12218;SDS011;6172;42.646;23.344;2024-02-23T08:45:17;10.67;;;7.90;;
12218;SDS011;6172;42.646;23.344;2024-02-23T08:47:46;15.73;;;7.87;;
12218;SDS011;6172;42.646;23.344;2024-02-23T08:50:16;13.97;;;8.10;;
12218;SDS011;6172;42.646;23.344;2024-02-23T08:52:43;11.90;;;7.93;;
12218;SDS011;6172;42.646;23.344;2024-02-23T08:55:13;13.57;;;8.53;;
12218;SDS011;6172;42.646;23.344;2024-02-23T08:57:41;13.70;;;8.13;;
12218;SDS011;6172;42.646;23.344;2024-02-23T09:00:09;12.13;;;7.60;;
12218;SDS011;6172;42.646;23.344;2024-02-23T09:02:42;13.67;;;8.30;;
12218;SDS011;6172;42.646;23.344;2024-02-23T09:05:11;14.00;;;7.60;;
12218;SDS011;6172;42.646;23.344;2024-02-23T09:07:38;11.60;;;7.30;;
12218;SDS011;6172;42.646;23.344;2024-02-23T09:10:07;14.40;;;7.10;;
12218;SDS011;6172;42.646;23.344;2024-02-23T09:12:37;11.80;;;6.83;;
12218;SDS011;6172;42.646;23.344;2024-02-23T09:15:05;9.03;;;5.50;;
12218;SDS011;6172;42.646;23.344;2024-02-23T09:17:34;8.53;;;6.03;;
12218;SDS011;6172;42.646;23.344;2024-02-23T09:20:01;8.20;;;6.23;;
12218;SDS011;6172;42.646;23.344;2024-02-23T09:22:29;9.20;;;6.10;;
12218;SDS011;6172;42.646;23.344;2024-02-23T09:24:57;9.37;;;5.87;;
12218;SDS011;6172;42.646;23.344;2024-02-23T09:27:38;11.10;;;5.67;;
12218;SDS011;6172;42.646;23.344;2024-02-23T09:30:09;13.10;;;7.07;;
12218;SDS011;6172;42.646;23.344;2024-02-23T09:32:42;9.43;;;6.00;;
12218;SDS011;6172;42.646;23.344;2024-02-23T09:35:11;7.67;;;4.53;;
12218;SDS011;6172;42.646;23.344;2024-02-23T09:37:40;6.57;;;4.43;;
12218;SDS011;6172;42.646;23.344;2024-02-23T09:40:16;6.40;;;3.67;;
12218;SDS011;6172;42.646;23.344;2024-02-23T09:42:43;7.00;;;3.20;;
12218;SDS011;6172;42.646;23.344;2024-02-23T09:45:19;9.93;;;4.20;;
12218;SDS011;6172;42.646;23.344;2024-02-23T09:47:48;9.17;;;4.20;;
12218;SDS011;6172;42.646;23.344;2024-02-23T09:50:16;8.03;;;4.23;;
12218;SDS011;6172;42.646;23.344;2024-02-23T09:52:46;5.00;;;3.50;;
12218;SDS011;6172;42.646;23.344;2024-02-23T09:55:17;2.93;;;2.00;;
12218;SDS011;6172;42.646;23.344;2024-02-23T09:57:47;9.50;;;6.87;;
12218;SDS011;6172;42.646;23.344;2024-02-23T10:00:15;6.40;;;3.77;;
12218;SDS011;6172;42.646;23.344;2024-02-23T10:02:43;6.20;;;3.40;;
12218;SDS011;6172;42.646;23.344;2024-02-23T10:05:13;3.10;;;1.92;;
12218;SDS011;6172;42.646;23.344;2024-02-23T10:07:42;6.20;;;3.27;;
12218;SDS011;6172;42.646;23.344;2024-02-23T10:10:11;9.13;;;3.90;;
12218;SDS011;6172;42.646;23.344;2024-02-23T10:12:39;1.47;;;1.20;;
12218;SDS011;6172;42.646;23.344;2024-02-23T10:15:06;2.87;;;1.40;;
12218;SDS011;6172;42.646;23.344;2024-02-23T10:17:35;6.00;;;4.50;;
12218;SDS011;6172;42.646;23.344;2024-02-23T10:20:03;4.50;;;3.10;;
12218;SDS011;6172;42.646;23.344;2024-02-23T10:22:33;5.70;;;2.93;;
12218;SDS011;6172;42.646;23.344;2024-02-23T10:25:00;4.03;;;1.90;;
12218;SDS011;6172;42.646;23.344;2024-02-23T10:27:29;2.03;;;1.30;;
12218;SDS011;6172;42.646;23.344;2024-02-23T10:30:05;5.37;;;2.00;;
12218;SDS011;6172;42.646;23.344;2024-02-23T10:32:36;0.82;;;0.82;;
12218;SDS011;6172;42.646;23.344;2024-02-23T10:35:06;2.70;;;0.93;;
12218;SDS011;6172;42.646;23.344;2024-02-23T10:37:39;3.05;;;1.30;;
12218;SDS011;6172;42.646;23.344;2024-02-23T10:40:11;1.10;;;1.10;;
12218;SDS011;6172;42.646;23.344;2024-02-23T10:42:57;4.50;;;1.20;;
12218;SDS011;6172;42.646;23.344;2024-02-23T10:45:32;1.50;;;1.30;;
12218;SDS011;6172;42.646;23.344;2024-02-23T10:48:02;2.03;;;1.42;;
12218;SDS011;6172;42.646;23.344;2024-02-23T10:50:31;2.03;;;1.30;;
12218;SDS011;6172;42.646;23.344;2024-02-23T10:53:07;1.38;;;1.00;;
12218;SDS011;6172;42.646;23.344;2024-02-23T10:56:21;1.63;;;1.08;;
12218;SDS011;6172;42.646;23.344;2024-02-23T10:58:53;2.10;;;0.95;;
12218;SDS011;6172;42.646;23.344;2024-02-23T11:01:26;2.38;;;1.15;;
12218;SDS011;6172;42.646;23.344;2024-02-23T11:03:54;2.72;;;1.08;;
12218;SDS011;6172;42.646;23.344;2024-02-23T11:06:27;2.03;;;1.25;;
12218;SDS011;6172;42.646;23.344;2024-02-23T11:11:50;1.48;;;1.38;;
12218;SDS011;6172;42.646;23.344;2024-02-23T11:14:29;1.60;;;1.00;;
12218;SDS011;6172;42.646;23.344;2024-02-23T11:16:57;1.47;;;1.20;;
12218;SDS011;6172;42.646;23.344;2024-02-23T11:19:31;1.20;;;0.97;;
12218;SDS011;6172;42.646;23.344;2024-02-23T11:22:00;1.20;;;1.10;;
12218;SDS011;6172;42.646;23.344;2024-02-23T11:24:30;3.33;;;1.10;;
12218;SDS011;6172;42.646;23.344;2024-02-23T11:26:58;1.23;;;1.13;;
12218;SDS011;6172;42.646;23.344;2024-02-23T11:29:26;1.77;;;0.93;;
12218;SDS011;6172;42.646;23.344;2024-02-23T11:31:54;2.43;;;1.30;;
12218;SDS011;6172;42.646;23.344;2024-02-23T11:34:27;1.47;;;1.30;;
12218;SDS011;6172;42.646;23.344;2024-02-23T11:36:55;1.33;;;0.90;;
12218;SDS011;6172;42.646;23.344;2024-02-23T11:39:26;1.93;;;1.50;;
12218;SDS011;6172;42.646;23.344;2024-02-23T11:41:55;2.87;;;1.20;;
12218;SDS011;6172;42.646;23.344;2024-02-23T11:44:25;3.03;;;1.53;;
12218;SDS011;6172;42.646;23.344;2024-02-23T11:46:52;2.90;;;1.50;;
12218;SDS011;6172;42.646;23.344;2024-02-23T11:49:19;4.53;;;2.07;;
12218;SDS011;6172;42.646;23.344;2024-02-23T11:51:51;4.60;;;1.63;;
12218;SDS011;6172;42.646;23.344;2024-02-23T11:54:19;1.73;;;1.30;;
12218;SDS011;6172;42.646;23.344;2024-02-23T11:56:46;3.07;;;1.40;;
12218;SDS011;6172;42.646;23.344;2024-02-23T11:59:19;2.53;;;1.07;;
12218;SDS011;6172;42.646;23.344;2024-02-23T12:01:48;3.80;;;1.20;;
12218;SDS011;6172;42.646;23.344;2024-02-23T12:04:16;2.83;;;1.07;;
12218;SDS011;6172;42.646;23.344;2024-02-23T12:06:44;3.43;;;1.10;;
12218;SDS011;6172;42.646;23.344;2024-02-23T12:09:12;2.13;;;1.40;;
12218;SDS011;6172;42.646;23.344;2024-02-23T12:11:48;3.23;;;1.30;;
12218;SDS011;6172;42.646;23.344;2024-02-23T12:17:01;4.97;;;1.37;;
12218;SDS011;6172;42.646;23.344;2024-02-23T12:19:31;1.20;;;0.93;;
12218;SDS011;6172;42.646;23.344;2024-02-23T12:22:04;1.90;;;1.10;;
12218;SDS011;6172;42.646;23.344;2024-02-23T12:24:32;5.13;;;1.53;;
12218;SDS011;6172;42.646;23.344;2024-02-23T12:27:02;3.40;;;1.50;;
12218;SDS011;6172;42.646;23.344;2024-02-23T12:32:12;2.93;;;1.30;;
12218;SDS011;6172;42.646;23.344;2024-02-23T12:34:52;3.63;;;1.30;;
12218;SDS011;6172;42.646;23.344;2024-02-23T12:45:37;2.53;;;1.20;;
12218;SDS011;6172;42.646;23.344;2024-02-23T12:48:12;4.70;;;1.00;;
12218;SDS011;6172;42.646;23.344;2024-02-23T12:50:39;5.33;;;1.10;;
12218;SDS011;6172;42.646;23.344;2024-02-23T12:56:19;6.33;;;1.00;;
12218;SDS011;6172;42.646;23.344;2024-02-23T12:59:01;2.07;;;0.70;;
12218;SDS011;6172;42.646;23.344;2024-02-23T13:01:38;1.97;;;0.70;;
12218;SDS011;6172;42.646;23.344;2024-02-23T13:07:16;2.73;;;0.93;;
12218;SDS011;6172;42.646;23.344;2024-02-23T13:09:45;3.70;;;1.33;;
12218;SDS011;6172;42.646;23.344;2024-02-23T13:12:13;1.50;;;0.60;;
12218;SDS011;6172;42.646;23.344;2024-02-23T13:14:40;1.60;;;0.90;;
12218;SDS011;6172;42.646;23.344;2024-02-23T13:17:09;4.33;;;1.00;;
12218;SDS011;6172;42.646;23.344;2024-02-23T13:19:38;2.43;;;1.00;;
12218;SDS011;6172;42.646;23.344;2024-02-23T13:22:07;1.50;;;0.63;;
12218;SDS011;6172;42.646;23.344;2024-02-23T13:24:35;3.77;;;0.97;;
12218;SDS011;6172;42.646;23.344;2024-02-23T13:27:21;3.10;;;1.07;;
12218;SDS011;6172;42.646;23.344;2024-02-23T13:29:48;3.13;;;1.20;;
12218;SDS011;6172;42.646;23.344;2024-02-23T13:32:18;2.73;;;1.10;;
12218;SDS011;6172;42.646;23.344;2024-02-23T13:34:55;1.83;;;0.80;;
12218;SDS011;6172;42.646;23.344;2024-02-23T13:37:42;1.90;;;0.80;;
12218;SDS011;6172;42.646;23.344;2024-02-23T13:40:11;1.43;;;0.80;;
12218;SDS011;6172;42.646;23.344;2024-02-23T13:42:38;2.80;;;0.80;;
12218;SDS011;6172;42.646;23.344;2024-02-23T13:45:15;4.27;;;1.23;;
12218;SDS011;6172;42.646;23.344;2024-02-23T13:51:03;8.03;;;1.23;;
12218;SDS011;6172;42.646;23.344;2024-02-23T13:53:34;1.00;;;0.70;;
12218;SDS011;6172;42.646;23.344;2024-02-23T13:56:02;2.93;;;0.97;;
12218;SDS011;6172;42.646;23.344;2024-02-23T13:58:31;2.03;;;1.07;;
12218;SDS011;6172;42.646;23.344;2024-02-23T14:01:16;4.30;;;3.90;;
12218;SDS011;6172;42.646;23.344;2024-02-23T14:03:47;4.37;;;2.10;;
12218;SDS011;6172;42.646;23.344;2024-02-23T14:06:33;2.97;;;1.10;;
12218;SDS011;6172;42.646;23.344;2024-02-23T14:09:00;1.93;;;0.83;;
12218;SDS011;6172;42.646;23.344;2024-02-23T14:15:29;3.30;;;0.93;;
12218;SDS011;6172;42.646;23.344;2024-02-23T14:17:58;3.17;;;1.00;;
12218;SDS011;6172;42.646;23.344;2024-02-23T14:20:28;2.10;;;1.10;;
12218;SDS011;6172;42.646;23.344;2024-02-23T14:22:57;3.30;;;1.00;;
12218;SDS011;6172;42.646;23.344;2024-02-23T14:25:26;3.53;;;0.97;;
12218;SDS011;6172;42.646;23.344;2024-02-23T14:28:07;1.97;;;1.10;;
12218;SDS011;6172;42.646;23.344;2024-02-23T14:30:38;1.97;;;0.90;;
12218;SDS011;6172;42.646;23.344;2024-02-23T14:33:08;4.47;;;1.17;;
12218;SDS011;6172;42.646;23.344;2024-02-23T14:35:36;3.33;;;1.00;;
12218;SDS011;6172;42.646;23.344;2024-02-23T14:38:07;6.10;;;1.27;;
12218;SDS011;6172;42.646;23.344;2024-02-23T14:40:34;2.00;;;1.30;;
12218;SDS011;6172;42.646;23.344;2024-02-23T14:43:06;3.30;;;0.97;;
12218;SDS011;6172;42.646;23.344;2024-02-23T14:45:37;1.10;;;0.90;;
12218;SDS011;6172;42.646;23.344;2024-02-23T14:48:07;1.47;;;1.00;;
12218;SDS011;6172;42.646;23.344;2024-02-23T14:50:36;2.70;;;0.83;;
12218;SDS011;6172;42.646;23.344;2024-02-23T14:58:22;1.53;;;1.00;;
12218;SDS011;6172;42.646;23.344;2024-02-23T15:00:49;2.43;;;1.00;;
12218;SDS011;6172;42.646;23.344;2024-02-23T15:03:31;0.67;;;0.67;;
12218;SDS011;6172;42.646;23.344;2024-02-23T15:06:00;3.20;;;1.10;;
12218;SDS011;6172;42.646;23.344;2024-02-23T15:08:29;2.63;;;0.80;;
12218;SDS011;6172;42.646;23.344;2024-02-23T15:11:05;2.63;;;0.80;;
12218;SDS011;6172;42.646;23.344;2024-02-23T15:13:59;1.00;;;1.00;;
12218;SDS011;6172;42.646;23.344;2024-02-23T15:16:40;11.10;;;2.83;;
12218;SDS011;6172;42.646;23.344;2024-02-23T15:19:13;2.47;;;1.43;;
12218;SDS011;6172;42.646;23.344;2024-02-23T15:21:46;3.73;;;1.40;;
12218;SDS011;6172;42.646;23.344;2024-02-23T15:24:14;4.27;;;2.30;;
12218;SDS011;6172;42.646;23.344;2024-02-23T15:26:43;7.23;;;3.63;;
12218;SDS011;6172;42.646;23.344;2024-02-23T15:31:56;1.47;;;0.97;;
12218;SDS011;6172;42.646;23.344;2024-02-23T15:34:26;1.43;;;1.10;;
12218;SDS011;6172;42.646;23.344;2024-02-23T15:37:19;2.47;;;1.10;;
12218;SDS011;6172;42.646;23.344;2024-02-23T15:39:47;1.73;;;1.27;;
12218;SDS011;6172;42.646;23.344;2024-02-23T15:42:14;1.23;;;1.10;;
12218;SDS011;6172;42.646;23.344;2024-02-23T15:56:45;1.37;;;1.17;;
12218;SDS011;6172;42.646;23.344;2024-02-23T15:59:30;3.10;;;2.00;;
12218;SDS011;6172;42.646;23.344;2024-02-23T16:02:28;4.00;;;1.53;;
12218;SDS011;6172;42.646;23.344;2024-02-23T16:04:56;5.67;;;1.90;;
12218;SDS011;6172;42.646;23.344;2024-02-23T16:07:24;4.90;;;1.73;;
12218;SDS011;6172;42.646;23.344;2024-02-23T16:09:56;4.70;;;2.50;;
12218;SDS011;6172;42.646;23.344;2024-02-23T16:12:35;6.37;;;2.07;;
12218;SDS011;6172;42.646;23.344;2024-02-23T16:15:03;3.37;;;1.60;;
12218;SDS011;6172;42.646;23.344;2024-02-23T16:17:34;5.43;;;1.90;;
12218;SDS011;6172;42.646;23.344;2024-02-23T16:20:06;2.07;;;1.50;;
12218;SDS011;6172;42.646;23.344;2024-02-23T16:22:35;2.63;;;1.60;;
12218;SDS011;6172;42.646;23.344;2024-02-23T16:25:03;3.70;;;2.00;;
12218;SDS011;6172;42.646;23.344;2024-02-23T16:27:32;4.30;;;2.20;;
12218;SDS011;6172;42.646;23.344;2024-02-23T16:30:01;2.87;;;1.60;;
12218;SDS011;6172;42.646;23.344;2024-02-23T16:32:29;5.30;;;2.20;;
12218;SDS011;6172;42.646;23.344;2024-02-23T16:34:56;9.37;;;2.83;;
12218;SDS011;6172;42.646;23.344;2024-02-23T16:37:23;7.50;;;2.50;;
12218;SDS011;6172;42.646;23.344;2024-02-23T16:39:50;4.37;;;2.50;;
12218;SDS011;6172;42.646;23.344;2024-02-23T16:42:17;6.30;;;2.10;;
12218;SDS011;6172;42.646;23.344;2024-02-23T16:44:46;5.30;;;2.87;;
12218;SDS011;6172;42.646;23.344;2024-02-23T16:47:13;6.30;;;3.60;;
12218;SDS011;6172;42.646;23.344;2024-02-23T16:49:41;7.23;;;2.97;;
12218;SDS011;6172;42.646;23.344;2024-02-23T16:52:08;5.83;;;2.60;;
12218;SDS011;6172;42.646;23.344;2024-02-23T16:54:35;5.70;;;2.30;;
12218;SDS011;6172;42.646;23.344;2024-02-23T16:57:02;3.70;;;2.53;;
12218;SDS011;6172;42.646;23.344;2024-02-23T16:59:50;4.30;;;2.93;;
12218;SDS011;6172;42.646;23.344;2024-02-23T17:02:17;5.13;;;2.60;;
12218;SDS011;6172;42.646;23.344;2024-02-23T17:04:46;7.97;;;3.10;;
12218;SDS011;6172;42.646;23.344;2024-02-23T17:07:13;4.23;;;2.43;;
12218;SDS011;6172;42.646;23.344;2024-02-23T17:09:54;2.57;;;2.33;;
12218;SDS011;6172;42.646;23.344;2024-02-23T17:12:37;5.03;;;2.67;;
12218;SDS011;6172;42.646;23.344;2024-02-23T17:15:09;6.50;;;2.93;;
12218;SDS011;6172;42.646;23.344;2024-02-23T17:17:37;5.83;;;2.60;;